createdAt,value
2023-02-06T00:01:18.613Z,1.30
2023-02-06T00:03:45.468Z,0.70
2023-02-06T00:06:12.281Z,0.60
2023-02-06T00:08:39.242Z,0.80
2023-02-06T00:11:08.336Z,1.00
2023-02-06T00:13:36.381Z,1.10
2023-02-06T00:16:04.851Z,1.00
2023-02-06T00:18:32.069Z,2.10
2023-02-06T00:20:59.283Z,1.40
2023-02-06T00:23:26.130Z,2.10
2023-02-06T00:25:53.185Z,1.40
2023-02-06T00:28:20.000Z,1.40
2023-02-06T00:30:48.353Z,1.60
2023-02-06T00:33:15.382Z,1.80
2023-02-06T00:35:42.208Z,1.70
2023-02-06T00:38:10.708Z,1.90
2023-02-06T00:40:37.955Z,2.70
2023-02-06T00:43:04.764Z,2.20
2023-02-06T00:45:31.579Z,2.80
2023-02-06T00:48:00.810Z,2.70
2023-02-06T00:50:27.865Z,2.30
2023-02-06T00:52:54.701Z,2.60
2023-02-06T00:55:21.645Z,2.60
2023-02-06T00:57:48.445Z,2.70
2023-02-06T01:00:15.851Z,2.20
2023-02-06T01:02:42.730Z,2.10
2023-02-06T01:05:10.086Z,2.10
2023-02-06T01:07:39.525Z,2.10
2023-02-06T01:10:12.509Z,2.20
2023-02-06T01:12:40.626Z,2.10
2023-02-06T01:15:09.926Z,2.40
2023-02-06T01:17:37.521Z,2.50
2023-02-06T01:20:05.654Z,3.80
2023-02-06T01:22:35.099Z,2.10
2023-02-06T01:25:02.056Z,2.90
2023-02-06T01:27:28.927Z,2.10
2023-02-06T01:29:55.778Z,2.10
2023-02-06T01:32:22.625Z,2.30
2023-02-06T01:34:49.456Z,2.30
2023-02-06T01:37:17.385Z,2.20
2023-02-06T01:39:48.667Z,2.30
2023-02-06T01:42:15.510Z,2.30
2023-02-06T01:44:43.611Z,2.40
2023-02-06T01:47:11.152Z,2.40
2023-02-06T01:49:49.253Z,2.50
2023-02-06T01:52:23.986Z,2.50
2023-02-06T01:54:55.862Z,2.30
2023-02-06T01:57:24.783Z,2.00
2023-02-06T01:59:58.267Z,1.90
2023-02-06T02:02:26.825Z,1.70
2023-02-06T02:04:54.992Z,1.60
2023-02-06T02:07:33.019Z,1.50
2023-02-06T02:09:59.819Z,1.60
2023-02-06T02:12:27.647Z,1.80
2023-02-06T02:14:55.211Z,2.00
2023-02-06T02:17:42.801Z,1.70
2023-02-06T02:20:34.819Z,1.40
2023-02-06T02:23:22.086Z,1.20
2023-02-06T02:26:09.995Z,1.00
2023-02-06T02:28:48.628Z,0.80
2023-02-06T02:31:30.694Z,0.70
2023-02-06T02:34:37.192Z,0.80
2023-02-06T02:37:18.032Z,0.70
2023-02-06T02:40:03.794Z,0.60
2023-02-06T02:43:02.756Z,0.60
2023-02-06T02:45:37.075Z,0.60
2023-02-06T02:48:20.447Z,0.50
2023-02-06T02:50:47.791Z,0.50
2023-02-06T02:53:14.920Z,1.10
2023-02-06T02:55:42.104Z,1.20
2023-02-06T02:58:12.172Z,1.30
2023-02-06T03:00:49.727Z,1.70
2023-02-06T03:03:22.073Z,1.50
2023-02-06T03:06:30.577Z,1.90
2023-02-06T03:09:03.672Z,1.40
2023-02-06T03:11:30.883Z,1.60
2023-02-06T03:14:03.567Z,1.40
2023-02-06T03:16:43.465Z,1.30
2023-02-06T03:19:13.757Z,1.10
2023-02-06T03:21:41.881Z,1.20
2023-02-06T03:24:13.627Z,1.60
2023-02-06T03:26:44.764Z,1.20
2023-02-06T03:29:16.384Z,1.00
2023-02-06T03:32:05.510Z,1.40
2023-02-06T03:34:45.000Z,1.00
2023-02-06T03:37:12.928Z,0.90
2023-02-06T03:39:40.353Z,1.30
2023-02-06T03:42:10.645Z,1.70
2023-02-06T03:44:43.701Z,1.60
2023-02-06T03:47:14.358Z,1.80
2023-02-06T03:49:44.382Z,1.70
2023-02-06T03:52:15.087Z,1.60
2023-02-06T03:54:51.326Z,1.80
2023-02-06T03:57:21.020Z,1.90
2023-02-06T03:59:48.550Z,1.70
2023-02-06T04:02:17.417Z,1.70
2023-02-06T04:04:48.965Z,2.10
2023-02-06T04:07:30.793Z,1.80
2023-02-06T04:09:57.689Z,2.10
2023-02-06T04:12:28.306Z,1.80
2023-02-06T04:14:56.241Z,1.70
2023-02-06T04:17:43.179Z,1.90
2023-02-06T04:20:12.684Z,2.20
2023-02-06T04:22:40.651Z,2.20
2023-02-06T04:25:09.117Z,3.20
2023-02-06T04:27:36.827Z,2.20
2023-02-06T04:30:07.990Z,2.30
2023-02-06T04:32:34.858Z,2.20
2023-02-06T04:35:01.598Z,2.20
2023-02-06T04:37:28.392Z,2.20
2023-02-06T04:39:55.254Z,2.20
2023-02-06T04:42:23.546Z,2.70
2023-02-06T04:44:50.360Z,2.00
2023-02-06T04:47:17.198Z,2.10
2023-02-06T04:49:43.950Z,2.00
2023-02-06T04:52:12.846Z,1.80
2023-02-06T04:54:40.775Z,1.80
2023-02-06T04:57:07.578Z,1.80
2023-02-06T04:59:35.881Z,3.30
2023-02-06T05:02:04.163Z,2.40
2023-02-06T05:04:31.139Z,2.30
2023-02-06T05:06:59.317Z,2.00
2023-02-06T05:09:26.254Z,2.10
2023-02-06T05:11:53.109Z,1.90
2023-02-06T05:14:19.848Z,2.30
2023-02-06T05:16:46.863Z,1.90
2023-02-06T05:19:13.631Z,2.00
2023-02-06T05:21:40.570Z,2.00
2023-02-06T05:24:07.716Z,1.90
2023-02-06T05:26:35.982Z,1.90
2023-02-06T05:29:02.812Z,1.80
2023-02-06T05:31:29.721Z,1.70
2023-02-06T05:33:56.515Z,1.70
2023-02-06T05:36:26.136Z,1.80
2023-02-06T05:38:55.597Z,1.70
2023-02-06T05:41:22.475Z,1.50
2023-02-06T05:43:49.445Z,1.60
2023-02-06T05:46:16.306Z,2.30
2023-02-06T05:48:44.953Z,2.40
2023-02-06T05:51:12.472Z,1.70
2023-02-06T05:53:39.336Z,1.50
2023-02-06T05:56:06.313Z,-0.40
2023-02-06T05:58:33.207Z,1.30
2023-02-06T06:01:00.008Z,1.00
2023-02-06T06:03:28.338Z,0.60
2023-02-06T06:05:55.108Z,0.80
2023-02-06T06:08:22.264Z,0.90
2023-02-06T06:10:54.538Z,0.90
2023-02-06T06:13:21.376Z,1.00
2023-02-06T06:15:52.632Z,1.40
2023-02-06T06:18:20.817Z,1.00
2023-02-06T06:20:47.902Z,1.00
2023-02-06T06:23:15.959Z,1.10
2023-02-06T06:25:42.973Z,1.20
2023-02-06T06:28:09.946Z,0.50
2023-02-06T06:30:37.690Z,0.50
2023-02-06T06:33:04.857Z,0.70
2023-02-06T06:35:31.621Z,0.80
2023-02-06T06:37:59.746Z,1.00
2023-02-06T06:40:27.618Z,1.00
2023-02-06T06:42:54.364Z,1.50
2023-02-06T06:45:21.317Z,0.90
2023-02-06T06:47:48.996Z,0.60
2023-02-06T06:50:16.071Z,0.40
2023-02-06T06:52:42.891Z,0.50
2023-02-06T06:55:10.547Z,0.60
2023-02-06T06:57:37.373Z,0.90
2023-02-06T07:00:05.469Z,0.70
2023-02-06T07:02:33.331Z,0.70
2023-02-06T07:05:00.545Z,0.80
2023-02-06T07:07:27.600Z,0.80
2023-02-06T07:09:54.492Z,0.70
2023-02-06T07:12:21.416Z,0.60
2023-02-06T07:14:48.212Z,0.80
2023-02-06T07:17:15.036Z,0.30
2023-02-06T07:19:41.859Z,0.30
2023-02-06T07:22:09.721Z,0.30
2023-02-06T07:24:37.164Z,0.60
2023-02-06T07:27:04.099Z,1.50
2023-02-06T07:29:30.921Z,0.40
2023-02-06T07:31:57.833Z,0.70
2023-02-06T07:34:27.051Z,0.70
2023-02-06T07:36:53.791Z,0.70
2023-02-06T07:39:20.684Z,0.50
2023-02-06T07:41:49.876Z,0.20
2023-02-06T07:44:16.893Z,0.10
2023-02-06T07:46:44.831Z,0.10
2023-02-06T07:49:18.562Z,0.30
2023-02-06T07:51:47.124Z,0.30
2023-02-06T07:54:13.913Z,0.50
2023-02-06T07:56:41.084Z,0.70
2023-02-06T07:59:10.836Z,0.60
2023-02-06T08:01:37.724Z,0.80
2023-02-06T08:04:04.810Z,0.80
2023-02-06T08:06:31.923Z,0.90
2023-02-06T08:08:58.723Z,1.00
2023-02-06T08:11:27.750Z,0.90
2023-02-06T08:13:54.628Z,1.50
2023-02-06T08:16:22.902Z,1.20
2023-02-06T08:18:50.476Z,1.30
2023-02-06T08:21:21.414Z,1.30
2023-02-06T08:23:53.915Z,1.20
2023-02-06T08:26:22.216Z,1.40
2023-02-06T08:28:51.183Z,1.40
2023-02-06T08:31:22.400Z,1.40
2023-02-06T08:33:49.672Z,1.20
2023-02-06T08:36:18.646Z,1.10
2023-02-06T08:38:46.224Z,1.30
2023-02-06T08:41:28.249Z,2.10
2023-02-06T08:43:57.571Z,1.50
2023-02-06T08:46:28.259Z,1.90
2023-02-06T08:49:00.250Z,2.10
2023-02-06T08:51:30.146Z,2.40
2023-02-06T08:54:03.241Z,2.50
2023-02-06T08:56:31.308Z,2.60
2023-02-06T08:59:02.025Z,2.30
2023-02-06T09:01:35.512Z,2.30
2023-02-06T09:04:15.426Z,2.30
2023-02-06T09:06:50.189Z,2.30
2023-02-06T09:09:17.125Z,2.40
2023-02-06T09:11:44.518Z,2.50
2023-02-06T09:14:20.115Z,2.60
2023-02-06T09:16:47.076Z,2.80
2023-02-06T09:19:15.092Z,2.90
2023-02-06T09:21:42.644Z,3.00
2023-02-06T09:24:11.254Z,3.10
2023-02-06T09:26:53.427Z,3.20
2023-02-06T09:29:25.688Z,3.00
2023-02-06T09:31:52.470Z,2.90
2023-02-06T09:34:19.283Z,3.10
2023-02-06T09:36:46.176Z,3.50
2023-02-06T09:39:13.023Z,4.40
2023-02-06T09:41:55.168Z,3.70
2023-02-06T09:44:29.968Z,3.50
2023-02-06T09:47:27.980Z,3.60
2023-02-06T09:50:08.000Z,3.80
2023-02-06T09:53:03.090Z,4.10
2023-02-06T09:55:42.094Z,3.80
2023-02-06T09:58:16.224Z,3.40
2023-02-06T10:01:20.490Z,3.40
2023-02-06T10:04:14.395Z,3.30
2023-02-06T10:07:07.422Z,3.40
2023-02-06T10:10:11.450Z,3.30
2023-02-06T10:12:43.326Z,3.30
2023-02-06T10:15:14.979Z,3.60
2023-02-06T10:17:50.438Z,3.70
2023-02-06T10:20:23.655Z,4.00
2023-02-06T10:23:17.732Z,4.20
2023-02-06T10:25:59.532Z,4.60
2023-02-06T10:28:29.254Z,4.70
2023-02-06T10:31:14.919Z,4.90
2023-02-06T10:33:47.595Z,5.10
2023-02-06T10:36:40.438Z,5.20
2023-02-06T10:39:37.884Z,5.30
2023-02-06T10:42:22.825Z,5.10
2023-02-06T10:44:59.564Z,5.10
2023-02-06T10:48:02.804Z,3.70
2023-02-06T10:50:37.769Z,5.90
2023-02-06T10:53:12.127Z,6.10
2023-02-06T10:56:03.357Z,6.20
2023-02-06T10:58:45.375Z,6.40
2023-02-06T11:01:26.127Z,6.60
2023-02-06T11:04:11.037Z,6.60
2023-02-06T11:06:40.588Z,6.50
2023-02-06T11:09:07.492Z,6.40
2023-02-06T11:11:41.070Z,6.40
2023-02-06T11:14:25.061Z,6.60
2023-02-06T11:16:53.020Z,6.80
2023-02-06T11:19:37.275Z,6.90
2023-02-06T11:22:15.805Z,7.10
2023-02-06T11:25:07.534Z,7.60
2023-02-06T11:27:35.920Z,7.90
2023-02-06T11:30:21.298Z,7.90
2023-02-06T11:33:02.671Z,8.00
2023-02-06T11:35:35.103Z,7.80
2023-02-06T11:38:17.534Z,8.10
2023-02-06T11:40:55.416Z,8.30
2023-02-06T11:43:26.027Z,8.20
2023-02-06T11:46:11.460Z,8.50
2023-02-06T11:48:39.790Z,8.30
2023-02-06T11:51:09.119Z,8.40
2023-02-06T11:53:37.843Z,8.60
2023-02-06T11:56:23.063Z,8.70
2023-02-06T11:59:16.409Z,8.90
2023-02-06T12:01:47.953Z,9.50
2023-02-06T12:04:25.621Z,9.70
2023-02-06T12:07:01.316Z,10.20
2023-02-06T12:09:28.449Z,10.70
2023-02-06T12:12:10.322Z,10.80
2023-02-06T12:14:49.562Z,11.00
2023-02-06T12:17:39.966Z,11.10
2023-02-06T12:20:45.359Z,10.70
2023-02-06T12:23:22.483Z,11.20
2023-02-06T12:25:51.605Z,11.30
2023-02-06T12:28:29.128Z,12.00
2023-02-06T12:30:59.148Z,11.60
2023-02-06T12:33:36.632Z,11.80
2023-02-06T12:36:20.574Z,12.10
2023-02-06T12:39:01.024Z,11.70
2023-02-06T12:42:13.460Z,12.00
2023-02-06T12:44:52.462Z,12.60
2023-02-06T12:47:30.353Z,12.10
2023-02-06T12:50:15.708Z,12.30
2023-02-06T12:52:48.956Z,12.50
2023-02-06T12:55:30.734Z,13.00
2023-02-06T12:57:58.060Z,14.00
2023-02-06T13:00:38.200Z,14.30
2023-02-06T13:03:32.947Z,14.60
2023-02-06T13:06:22.176Z,14.80
2023-02-06T13:09:01.473Z,15.00
2023-02-06T13:11:32.878Z,15.30
2023-02-06T13:14:04.554Z,15.80
2023-02-06T13:16:51.662Z,16.40
2023-02-06T13:19:26.592Z,16.30
2023-02-06T13:22:14.237Z,16.20
2023-02-06T13:24:43.951Z,15.30
2023-02-06T13:27:16.157Z,15.80
2023-02-06T13:29:53.956Z,16.20
2023-02-06T13:32:23.979Z,16.90
2023-02-06T13:34:59.911Z,17.20
2023-02-06T13:37:44.424Z,17.40
2023-02-06T13:40:32.139Z,17.50
2023-02-06T13:43:10.809Z,16.10
2023-02-06T13:45:38.008Z,16.70
2023-02-06T13:48:32.528Z,17.10
2023-02-06T13:51:37.756Z,16.40
2023-02-06T13:54:42.446Z,17.50
2023-02-06T13:57:12.316Z,16.50
2023-02-06T13:59:46.489Z,14.70
2023-02-06T14:02:38.057Z,14.30
2023-02-06T14:05:10.124Z,14.90
2023-02-06T14:08:01.420Z,15.40
2023-02-06T14:10:50.191Z,15.20
2023-02-06T14:13:30.877Z,16.30
2023-02-06T14:16:27.751Z,16.70
2023-02-06T14:19:12.426Z,16.20
2023-02-06T14:22:29.529Z,16.40
2023-02-06T14:25:16.788Z,15.60
2023-02-06T14:28:40.872Z,16.50
2023-02-06T14:31:34.884Z,17.00
2023-02-06T14:34:22.618Z,17.20
2023-02-06T14:37:22.029Z,17.70
2023-02-06T14:39:54.757Z,17.60
2023-02-06T14:42:41.881Z,18.00
2023-02-06T14:45:16.485Z,17.70
2023-02-06T14:47:44.191Z,17.90
2023-02-06T14:50:24.356Z,18.70
2023-02-06T14:52:57.830Z,18.70
2023-02-06T14:55:36.042Z,18.30
2023-02-06T14:58:04.607Z,18.00
2023-02-06T15:00:32.608Z,17.30
2023-02-06T15:03:21.532Z,15.60
2023-02-06T15:06:02.382Z,16.20
2023-02-06T15:08:29.957Z,16.80
2023-02-06T15:10:59.783Z,16.80
2023-02-06T15:13:35.914Z,16.50
2023-02-06T15:16:08.228Z,17.10
2023-02-06T15:18:36.292Z,17.30
2023-02-06T15:21:08.740Z,17.50
2023-02-06T15:23:41.690Z,17.30
2023-02-06T15:26:14.232Z,17.60
2023-02-06T15:28:41.236Z,17.70
2023-02-06T15:31:19.425Z,17.60
2023-02-06T15:33:50.002Z,18.00
2023-02-06T15:36:35.523Z,18.00
2023-02-06T15:39:05.208Z,18.20
2023-02-06T15:41:32.738Z,18.00
2023-02-06T15:44:37.248Z,18.10
2023-02-06T15:47:07.944Z,17.50
2023-02-06T15:49:41.478Z,17.00
2023-02-06T15:52:10.074Z,16.70
2023-02-06T15:54:41.070Z,16.40
2023-02-06T15:57:35.643Z,15.50
2023-02-06T16:00:09.118Z,15.80
2023-02-06T16:02:38.843Z,16.20
2023-02-06T16:05:07.932Z,16.10
2023-02-06T16:07:36.151Z,14.90
2023-02-06T16:10:18.631Z,15.10
2023-02-06T16:12:45.717Z,14.30
2023-02-06T16:15:26.496Z,13.30
2023-02-06T16:17:54.949Z,12.80
2023-02-06T16:20:40.179Z,12.80
2023-02-06T16:23:21.153Z,12.90
2023-02-06T16:25:59.487Z,12.80
2023-02-06T16:28:27.672Z,12.80
2023-02-06T16:31:11.378Z,12.60
2023-02-06T16:33:43.764Z,12.60
2023-02-06T16:36:15.427Z,12.30
2023-02-06T16:38:48.253Z,12.30
2023-02-06T16:41:24.305Z,12.40
2023-02-06T16:43:53.166Z,12.80
2023-02-06T16:46:20.081Z,12.80
2023-02-06T16:48:46.923Z,12.70
2023-02-06T16:51:22.205Z,12.10
2023-02-06T16:53:50.074Z,11.60
2023-02-06T16:56:18.608Z,11.30
2023-02-06T16:58:45.796Z,10.80
2023-02-06T17:01:25.515Z,10.60
2023-02-06T17:03:53.827Z,10.60
2023-02-06T17:06:24.842Z,10.60
2023-02-06T17:08:53.015Z,10.60
2023-02-06T17:11:19.840Z,10.10
2023-02-06T17:13:46.945Z,9.90
2023-02-06T17:16:23.311Z,9.80
2023-02-06T17:18:51.286Z,9.70
2023-02-06T17:21:21.683Z,9.20
2023-02-06T17:23:49.945Z,8.70
2023-02-06T17:26:19.541Z,8.40
2023-02-06T17:28:47.376Z,8.20
2023-02-06T17:31:14.827Z,8.10
2023-02-06T17:33:41.757Z,7.90
2023-02-06T17:36:15.224Z,7.70
2023-02-06T17:38:41.988Z,7.40
2023-02-06T17:41:08.891Z,7.20
2023-02-06T17:43:37.378Z,7.20
2023-02-06T17:46:05.989Z,7.10
2023-02-06T17:48:38.006Z,6.90
2023-02-06T17:51:06.408Z,6.80
2023-02-06T17:53:33.150Z,4.50
2023-02-06T17:56:12.997Z,6.50
2023-02-06T17:58:43.660Z,6.40
2023-02-06T18:01:17.261Z,6.30
2023-02-06T18:03:45.047Z,6.00
2023-02-06T18:06:14.005Z,6.10
2023-02-06T18:08:41.129Z,5.90
2023-02-06T18:11:13.510Z,6.00
2023-02-06T18:13:41.182Z,6.10
2023-02-06T18:16:12.775Z,6.10
2023-02-06T18:18:39.563Z,6.10
2023-02-06T18:21:06.478Z,6.40
2023-02-06T18:23:33.686Z,6.50
2023-02-06T18:26:06.210Z,6.10
2023-02-06T18:28:34.298Z,5.60
2023-02-06T18:31:02.199Z,5.40
2023-02-06T18:33:30.541Z,5.40
2023-02-06T18:35:57.494Z,5.40
2023-02-06T18:38:26.942Z,5.30
2023-02-06T18:40:53.683Z,5.00
2023-02-06T18:43:20.497Z,5.20
2023-02-06T18:45:47.244Z,5.00
2023-02-06T18:48:13.988Z,5.30
2023-02-06T18:50:42.724Z,5.50
2023-02-06T18:53:09.919Z,5.50
2023-02-06T18:55:37.539Z,5.20
2023-02-06T18:58:08.070Z,5.20
2023-02-06T19:00:37.909Z,5.10
2023-02-06T19:03:05.163Z,5.10
2023-02-06T19:05:36.537Z,4.90
2023-02-06T19:08:03.354Z,4.60
2023-02-06T19:10:30.146Z,4.50
2023-02-06T19:12:57.016Z,4.50
2023-02-06T19:15:23.776Z,4.30
2023-02-06T19:17:50.648Z,4.20
2023-02-06T19:20:17.838Z,4.00
2023-02-06T19:22:44.589Z,3.90
2023-02-06T19:25:14.597Z,4.00
2023-02-06T19:27:41.676Z,4.30
2023-02-06T19:30:09.129Z,4.50
2023-02-06T19:32:36.472Z,4.50
2023-02-06T19:35:04.763Z,4.20
2023-02-06T19:37:31.836Z,3.80
2023-02-06T19:39:58.617Z,3.60
2023-02-06T19:42:25.398Z,3.90
2023-02-06T19:44:54.133Z,2.70
2023-02-06T19:47:21.335Z,2.10
2023-02-06T19:50:44.918Z,1.90
2023-02-06T19:53:15.582Z,1.80
2023-02-06T19:55:47.916Z,2.50
2023-02-06T19:58:15.093Z,2.50
2023-02-06T20:00:41.928Z,2.70
2023-02-06T20:03:08.859Z,3.20
2023-02-06T20:05:35.731Z,3.30
2023-02-06T20:08:02.581Z,3.70
2023-02-06T20:10:29.523Z,3.30
2023-02-06T20:12:58.765Z,3.20
2023-02-06T20:15:25.740Z,3.10
2023-02-06T20:17:52.524Z,3.40
2023-02-06T20:20:19.454Z,3.70
2023-02-06T20:22:46.246Z,2.90
2023-02-06T20:25:13.058Z,2.90
2023-02-06T20:27:39.907Z,3.00
2023-02-06T20:30:07.442Z,3.60
2023-02-06T20:32:34.268Z,3.10
2023-02-06T20:35:01.045Z,3.20
2023-02-06T20:37:28.695Z,2.90
2023-02-06T20:39:55.530Z,2.50
2023-02-06T20:42:24.682Z,2.40
2023-02-06T20:44:52.613Z,2.50
2023-02-06T20:47:19.397Z,3.70
2023-02-06T20:49:46.190Z,2.60
2023-02-06T20:52:13.039Z,2.90
2023-02-06T20:54:40.101Z,1.10
2023-02-06T20:57:08.035Z,2.50
2023-02-06T20:59:35.184Z,2.60
2023-02-06T21:02:02.147Z,3.10
2023-02-06T21:04:33.052Z,3.50
2023-02-06T21:07:00.467Z,3.80
2023-02-06T21:09:27.258Z,3.90
2023-02-06T21:11:56.120Z,3.70
2023-02-06T21:14:22.922Z,3.80
2023-02-06T21:16:49.847Z,3.90
2023-02-06T21:19:19.331Z,4.00
2023-02-06T21:21:46.648Z,4.20
2023-02-06T21:24:14.831Z,4.30
2023-02-06T21:26:42.100Z,4.30
2023-02-06T21:29:10.291Z,4.10
2023-02-06T21:31:39.187Z,4.00
2023-02-06T21:34:09.078Z,4.00
2023-02-06T21:36:37.820Z,3.80
2023-02-06T21:39:05.743Z,3.90
2023-02-06T21:41:32.936Z,4.00
2023-02-06T21:43:59.799Z,4.00
2023-02-06T21:46:29.022Z,3.90
2023-02-06T21:48:55.831Z,3.80
2023-02-06T21:51:23.153Z,3.80
2023-02-06T21:53:50.014Z,3.80
2023-02-06T21:56:18.256Z,4.00
2023-02-06T21:58:45.476Z,3.80
2023-02-06T22:01:17.216Z,3.80
2023-02-06T22:03:45.578Z,4.20
2023-02-06T22:06:13.687Z,4.20
2023-02-06T22:08:43.713Z,4.30
2023-02-06T22:11:12.968Z,4.20
2023-02-06T22:13:40.781Z,4.10
2023-02-06T22:16:08.235Z,4.20
2023-02-06T22:18:35.106Z,3.60
2023-02-06T22:21:10.606Z,3.60
2023-02-06T22:23:38.008Z,3.50
2023-02-06T22:26:06.287Z,3.60
2023-02-06T22:28:33.315Z,3.40
2023-02-06T22:31:10.678Z,3.20
2023-02-06T22:33:37.830Z,3.10
2023-02-06T22:36:16.632Z,3.70
2023-02-06T22:38:45.041Z,3.00
2023-02-06T22:41:15.700Z,3.50
2023-02-06T22:43:43.485Z,2.90
2023-02-06T22:46:16.518Z,2.70
2023-02-06T22:48:43.300Z,2.60
2023-02-06T22:51:10.821Z,2.50
2023-02-06T22:53:39.087Z,2.50
2023-02-06T22:56:29.553Z,3.20
2023-02-06T22:59:17.572Z,2.80
2023-02-06T23:01:50.300Z,2.50
2023-02-06T23:04:22.740Z,2.70
2023-02-06T23:06:50.415Z,3.40
2023-02-06T23:09:23.076Z,3.00
2023-02-06T23:11:50.566Z,3.00
2023-02-06T23:14:18.622Z,3.10
2023-02-06T23:16:46.371Z,2.90
2023-02-06T23:19:14.384Z,3.90
2023-02-06T23:21:42.984Z,2.60
2023-02-06T23:24:11.427Z,2.50
2023-02-06T23:26:40.864Z,2.50
2023-02-06T23:29:09.221Z,2.50
2023-02-06T23:31:36.450Z,2.50
2023-02-06T23:34:03.606Z,2.60
2023-02-06T23:36:30.545Z,2.50
2023-02-06T23:38:57.391Z,2.60
2023-02-06T23:41:26.723Z,2.30
2023-02-06T23:44:07.595Z,2.10
2023-02-06T23:46:36.866Z,2.00
2023-02-06T23:49:04.561Z,2.90
2023-02-06T23:51:32.954Z,1.80
2023-02-06T23:54:00.041Z,1.90
2023-02-06T23:56:29.619Z,1.90
2023-02-06T23:58:57.978Z,1.90
